createdAt,value
2022-07-25T00:01:06.914Z,99928.53
2022-07-25T00:03:11.027Z,99927.00
2022-07-25T00:05:14.673Z,99929.84
2022-07-25T00:07:18.352Z,99931.19
2022-07-25T00:09:21.877Z,99929.66
2022-07-25T00:11:27.434Z,99925.63
2022-07-25T00:13:30.917Z,99939.03
2022-07-25T00:15:34.975Z,99936.69
2022-07-25T00:17:38.916Z,99935.00
2022-07-25T00:19:42.683Z,99936.84
2022-07-25T00:21:46.489Z,99939.69
2022-07-25T00:23:50.595Z,99940.69
2022-07-25T00:25:54.149Z,99938.00
2022-07-25T00:27:59.307Z,99942.38
2022-07-25T00:30:03.252Z,99939.69
2022-07-25T00:32:08.014Z,99942.38
2022-07-25T00:34:11.636Z,99945.88
2022-07-25T00:36:15.332Z,99945.69
2022-07-25T00:38:19.043Z,99950.06
2022-07-25T00:40:22.794Z,99947.75
2022-07-25T00:42:26.409Z,99948.41
2022-07-25T00:44:33.548Z,99949.91
2022-07-25T00:46:39.652Z,99948.28
2022-07-25T00:48:43.649Z,99954.13
2022-07-25T00:50:47.100Z,99961.97
2022-07-25T00:52:50.628Z,99959.13
2022-07-25T00:54:53.983Z,99961.97
2022-07-25T00:56:57.329Z,99962.16
2022-07-25T00:59:00.676Z,99958.66
2022-07-25T01:01:06.466Z,99953.47
2022-07-25T01:03:10.008Z,99964.47
2022-07-25T01:05:13.601Z,99966.63
2022-07-25T01:07:17.164Z,99959.06
2022-07-25T01:09:21.815Z,99965.44
2022-07-25T01:11:25.981Z,99961.91
2022-07-25T01:13:29.345Z,99960.75
2022-07-25T01:15:33.286Z,99963.44
2022-07-25T01:17:37.981Z,99951.91
2022-07-25T01:19:41.425Z,99960.09
2022-07-25T01:21:47.372Z,99967.44
2022-07-25T01:23:50.643Z,99969.75
2022-07-25T01:25:53.958Z,99963.03
2022-07-25T01:27:58.047Z,99964.38
2022-07-25T01:30:01.313Z,99965.69
2022-07-25T01:32:04.929Z,99966.84
2022-07-25T01:34:08.546Z,99965.63
2022-07-25T01:36:12.489Z,99970.31
2022-07-25T01:38:18.045Z,99966.28
2022-07-25T01:40:21.422Z,99968.44
2022-07-25T01:42:24.771Z,99967.06
2022-07-25T01:44:28.276Z,99971.75
2022-07-25T01:46:31.647Z,99969.38
2022-07-25T01:48:35.521Z,99973.91
2022-07-25T01:50:38.894Z,99975.75
2022-07-25T01:52:42.834Z,99986.28
2022-07-25T01:54:47.498Z,99982.63
2022-07-25T01:56:51.243Z,99986.94
2022-07-25T01:58:54.944Z,99993.66
2022-07-25T02:00:58.369Z,99989.00
2022-07-25T02:03:19.250Z,99981.66
2022-07-25T02:05:23.048Z,99989.38
2022-07-25T02:07:26.438Z,99996.53
2022-07-25T02:09:30.694Z,99990.53
2022-07-25T02:11:35.343Z,99990.00
2022-07-25T02:13:38.784Z,99990.31
2022-07-25T02:15:42.091Z,99988.63
2022-07-25T02:17:45.385Z,99992.13
2022-07-25T02:19:48.643Z,99993.66
2022-07-25T02:21:52.204Z,99992.66
2022-07-25T02:23:55.467Z,99988.00
2022-07-25T02:25:58.860Z,99996.88
2022-07-25T02:28:03.938Z,99997.69
2022-07-25T02:30:08.482Z,99994.03
2022-07-25T02:32:11.720Z,99998.72
2022-07-25T02:34:15.049Z,100007.03
2022-07-25T02:36:18.455Z,100007.50
2022-07-25T02:38:21.957Z,100000.47
2022-07-25T02:40:25.207Z,100006.16
2022-07-25T02:42:28.812Z,100006.59
2022-07-25T02:44:33.620Z,100007.47
2022-07-25T02:46:37.424Z,100011.13
2022-07-25T02:48:41.056Z,100011.44
2022-07-25T02:50:44.418Z,100010.91
2022-07-25T02:52:47.849Z,100015.41
2022-07-25T02:54:51.961Z,100015.59
2022-07-25T02:56:56.802Z,100018.25
2022-07-25T02:59:00.199Z,100015.41
2022-07-25T03:01:05.121Z,100019.09
2022-07-25T03:03:08.408Z,100013.72
2022-07-25T03:05:14.571Z,100016.41
2022-07-25T03:07:18.015Z,100013.91
2022-07-25T03:09:21.351Z,100017.56
2022-07-25T03:11:24.772Z,100016.56
2022-07-25T03:13:28.039Z,100013.19
2022-07-25T03:15:31.892Z,100019.41
2022-07-25T03:17:36.663Z,100016.03
2022-07-25T03:19:40.068Z,100014.22
2022-07-25T03:21:43.342Z,100010.69
2022-07-25T03:23:51.970Z,100011.53
2022-07-25T03:25:55.858Z,100014.06
2022-07-25T03:27:59.362Z,100014.88
2022-07-25T03:30:02.595Z,100016.56
2022-07-25T03:32:06.902Z,100022.91
2022-07-25T03:34:11.713Z,100017.41
2022-07-25T03:36:15.026Z,100027.94
2022-07-25T03:38:18.363Z,100021.91
2022-07-25T03:40:22.503Z,100026.94
2022-07-25T03:42:26.890Z,100028.78
2022-07-25T03:44:30.667Z,100035.66
2022-07-25T03:46:33.985Z,100031.97
2022-07-25T03:48:37.348Z,100037.19
2022-07-25T03:50:42.103Z,100040.69
2022-07-25T03:52:45.442Z,100036.31
2022-07-25T03:54:48.821Z,100033.50
2022-07-25T03:56:52.874Z,100040.00
2022-07-25T03:58:56.235Z,100044.66
2022-07-25T04:00:59.639Z,100048.31
2022-07-25T04:03:03.025Z,100039.63
2022-07-25T04:05:07.588Z,100043.31
2022-07-25T04:07:12.435Z,100044.28
2022-07-25T04:09:18.346Z,100050.63
2022-07-25T04:11:21.710Z,100049.94
2022-07-25T04:13:24.970Z,100051.91
2022-07-25T04:15:28.365Z,100059.28
2022-07-25T04:17:34.306Z,100061.94
2022-07-25T04:19:37.650Z,100066.31
2022-07-25T04:21:41.029Z,100065.28
2022-07-25T04:23:45.693Z,100073.63
2022-07-25T04:25:49.302Z,100070.13
2022-07-25T04:27:52.586Z,100074.59
2022-07-25T04:29:55.839Z,100077.28
2022-07-25T04:31:59.206Z,100089.66
2022-07-25T04:34:02.717Z,100078.97
2022-07-25T04:36:07.003Z,100083.50
2022-07-25T04:38:12.283Z,100090.38
2022-07-25T04:40:17.106Z,100085.00
2022-07-25T04:42:20.444Z,100086.66
2022-07-25T04:44:23.757Z,100085.00
2022-07-25T04:46:27.221Z,100081.31
2022-07-25T04:48:30.533Z,100085.69
2022-07-25T04:50:33.965Z,100090.72
2022-07-25T04:52:37.291Z,100081.56
2022-07-25T04:54:40.870Z,100084.06
2022-07-25T04:56:45.666Z,100088.44
2022-07-25T04:58:49.498Z,100085.44
2022-07-25T05:00:53.133Z,100096.13
2022-07-25T05:02:56.494Z,100098.81
2022-07-25T05:04:59.801Z,100099.50
2022-07-25T05:07:06.526Z,100104.03
2022-07-25T05:09:10.732Z,100102.84
2022-07-25T05:11:14.047Z,100109.06
2022-07-25T05:13:18.733Z,100114.72
2022-07-25T05:15:22.386Z,100124.56
2022-07-25T05:17:25.722Z,100124.56
2022-07-25T05:19:29.292Z,100129.06
2022-07-25T05:21:33.559Z,100136.25
2022-07-25T05:23:36.805Z,100127.38
2022-07-25T05:25:40.457Z,100126.56
2022-07-25T05:27:43.707Z,100132.41
2022-07-25T05:29:48.609Z,100140.00
2022-07-25T05:31:51.916Z,100136.19
2022-07-25T05:33:55.308Z,100141.06
2022-07-25T05:35:58.572Z,100142.44
2022-07-25T05:38:02.629Z,100140.47
2022-07-25T05:40:07.529Z,100136.75
2022-07-25T05:42:11.029Z,100145.94
2022-07-25T05:44:14.284Z,100146.09
2022-07-25T05:46:19.048Z,100147.41
2022-07-25T05:48:22.546Z,100156.28
2022-07-25T05:50:26.506Z,100165.13
2022-07-25T05:52:30.058Z,100171.47
2022-07-25T05:54:34.969Z,100165.44
2022-07-25T05:56:38.701Z,100172.47
2022-07-25T05:58:42.556Z,100178.50
2022-07-25T06:00:45.951Z,100191.72
2022-07-25T06:02:50.762Z,100185.53
2022-07-25T06:04:54.109Z,100198.22
2022-07-25T06:06:57.849Z,100193.31
2022-07-25T06:09:01.116Z,100200.81
2022-07-25T06:11:06.112Z,100213.94
2022-07-25T06:13:12.027Z,100215.38
2022-07-25T06:15:22.643Z,100217.38
2022-07-25T06:17:32.546Z,100226.22
2022-07-25T06:19:37.903Z,100229.06
2022-07-25T06:21:42.227Z,100234.72
2022-07-25T06:23:45.601Z,100235.28
2022-07-25T06:25:50.127Z,100249.94
2022-07-25T06:27:53.897Z,100242.34
2022-07-25T06:29:57.260Z,100255.72
2022-07-25T06:32:00.594Z,100253.19
2022-07-25T06:34:04.744Z,100262.34
2022-07-25T06:36:10.637Z,100270.22
2022-07-25T06:38:14.108Z,100267.16
2022-07-25T06:40:17.886Z,100263.59
2022-07-25T06:42:21.467Z,100271.19
2022-07-25T06:44:26.277Z,100275.28
2022-07-25T06:46:31.699Z,100276.88
2022-07-25T06:48:35.369Z,100286.63
2022-07-25T06:50:39.005Z,100288.06
2022-07-25T06:52:44.754Z,100284.69
2022-07-25T06:54:48.256Z,100288.75
2022-07-25T06:56:51.687Z,100295.06
2022-07-25T06:58:55.003Z,100299.06
2022-07-25T07:00:58.631Z,100302.31
2022-07-25T07:03:03.260Z,100299.53
2022-07-25T07:05:07.530Z,100301.88
2022-07-25T07:07:10.911Z,100310.16
2022-07-25T07:09:15.802Z,100304.41
2022-07-25T07:11:19.452Z,100312.78
2022-07-25T07:13:24.688Z,100324.59
2022-07-25T07:15:28.556Z,100319.06
2022-07-25T07:17:32.598Z,100320.88
2022-07-25T07:19:36.687Z,100320.19
2022-07-25T07:21:40.370Z,100320.47
2022-07-25T07:23:44.116Z,100321.94
2022-07-25T07:25:49.659Z,100319.31
2022-07-25T07:27:53.495Z,100322.00
2022-07-25T07:29:56.787Z,100328.75
2022-07-25T07:32:00.178Z,100334.13
2022-07-25T07:34:03.598Z,100340.47
2022-07-25T07:36:07.154Z,100344.16
2022-07-25T07:38:10.650Z,100337.66
2022-07-25T07:40:17.323Z,100345.41
2022-07-25T07:42:23.201Z,100351.03
2022-07-25T07:44:26.475Z,100358.34
2022-07-25T07:46:30.097Z,100364.84
2022-07-25T07:48:35.027Z,100376.38
2022-07-25T07:50:38.496Z,100371.56
2022-07-25T07:52:42.317Z,100382.19
2022-07-25T07:55:03.325Z,100380.56
2022-07-25T07:57:06.658Z,100372.91
2022-07-25T07:59:11.429Z,100382.22
2022-07-25T08:01:15.333Z,100385.94
2022-07-25T08:03:20.876Z,100386.03
2022-07-25T08:05:26.440Z,100392.81
2022-07-25T08:07:29.856Z,100393.91
2022-07-25T08:09:33.716Z,100411.03
2022-07-25T08:11:37.337Z,100403.41
2022-07-25T08:13:41.325Z,100394.44
2022-07-25T08:15:48.165Z,100400.81
2022-07-25T08:17:53.223Z,100401.75
2022-07-25T08:20:05.490Z,100404.19
2022-07-25T08:22:17.942Z,100404.63
2022-07-25T08:24:21.234Z,100420.00
2022-07-25T08:26:27.979Z,100415.63
2022-07-25T08:28:32.020Z,100423.41
2022-07-25T08:30:37.587Z,100430.19
2022-07-25T08:32:50.468Z,100446.56
2022-07-25T08:34:54.257Z,100457.78
2022-07-25T08:36:57.846Z,100440.91
2022-07-25T08:39:01.664Z,100444.72
2022-07-25T08:41:05.545Z,100446.72
2022-07-25T08:43:14.085Z,100446.16
2022-07-25T08:45:19.848Z,100455.56
2022-07-25T08:47:23.982Z,100450.47
2022-07-25T08:49:30.105Z,100461.56
2022-07-25T08:51:35.637Z,100459.44
2022-07-25T08:53:40.064Z,100464.09
2022-07-25T08:55:46.004Z,100469.16
2022-07-25T08:57:51.370Z,100473.09
2022-07-25T08:59:54.945Z,100478.47
2022-07-25T09:02:00.887Z,100484.13
2022-07-25T09:04:05.805Z,100494.25
2022-07-25T09:06:22.784Z,100490.03
2022-07-25T09:08:26.402Z,100502.03
2022-07-25T09:10:30.711Z,100496.28
2022-07-25T09:12:34.682Z,100503.59
2022-07-25T09:14:44.868Z,100511.63
2022-07-25T09:16:49.211Z,100518.56
2022-07-25T09:18:52.903Z,100524.47
2022-07-25T09:20:59.936Z,100523.78
2022-07-25T09:23:05.325Z,100529.28
2022-07-25T09:25:20.625Z,100532.94
2022-07-25T09:27:24.329Z,100529.13
2022-07-25T09:29:30.402Z,100534.91
2022-07-25T09:31:35.493Z,100548.41
2022-07-25T09:33:48.151Z,100541.88
2022-07-25T09:35:52.472Z,100550.94
2022-07-25T09:37:55.973Z,100558.50
2022-07-25T09:40:01.123Z,100569.22
2022-07-25T09:42:15.623Z,100564.16
2022-07-25T09:44:20.393Z,100569.66
2022-07-25T09:46:32.314Z,100571.19
2022-07-25T09:48:37.530Z,100578.94
2022-07-25T09:50:41.710Z,100592.31
2022-07-25T09:52:46.459Z,100580.88
2022-07-25T09:54:50.437Z,100586.38
2022-07-25T09:56:55.487Z,100595.41
2022-07-25T09:59:01.745Z,100592.53
2022-07-25T10:01:08.659Z,100602.34
2022-07-25T10:03:31.335Z,100605.41
2022-07-25T10:05:48.873Z,100604.75
2022-07-25T10:07:55.836Z,100605.03
2022-07-25T10:10:01.011Z,100594.25
2022-07-25T10:12:07.369Z,100601.56
2022-07-25T10:14:12.815Z,100605.38
2022-07-25T10:16:18.708Z,100614.72
2022-07-25T10:18:25.024Z,100619.69
2022-07-25T10:20:30.634Z,100623.66
2022-07-25T10:22:57.527Z,100635.09
2022-07-25T10:25:11.817Z,100637.22
2022-07-25T10:27:24.840Z,100637.53
2022-07-25T10:29:35.538Z,100639.41
2022-07-25T10:31:49.294Z,100640.84
2022-07-25T10:33:57.083Z,100654.25
2022-07-25T10:36:08.095Z,100653.94
2022-07-25T10:38:12.191Z,100646.88
2022-07-25T10:40:28.079Z,100653.59
2022-07-25T10:42:36.889Z,100661.34
2022-07-25T10:44:46.770Z,100668.25
2022-07-25T10:46:50.515Z,100665.34
2022-07-25T10:49:05.119Z,100667.06
2022-07-25T10:51:10.235Z,100665.31
2022-07-25T10:53:14.097Z,100682.94
2022-07-25T10:55:25.040Z,100687.78
2022-07-25T10:57:32.213Z,100688.97
2022-07-25T10:59:40.802Z,100699.72
2022-07-25T11:01:45.168Z,100698.22
2022-07-25T11:03:49.362Z,100696.53
2022-07-25T11:05:54.970Z,100709.16
2022-07-25T11:08:20.741Z,100709.69
2022-07-25T11:10:28.179Z,100718.28
2022-07-25T11:12:31.950Z,100725.97
2022-07-25T11:14:41.608Z,100719.81
2022-07-25T11:16:46.401Z,100719.28
2022-07-25T11:18:50.156Z,100718.81
2022-07-25T11:21:05.806Z,100723.19
2022-07-25T11:23:09.942Z,100717.38
2022-07-25T11:25:15.625Z,100741.44
2022-07-25T11:27:24.418Z,100744.13
2022-07-25T11:29:28.402Z,100750.47
2022-07-25T11:31:33.647Z,100751.94
2022-07-25T11:33:38.771Z,100756.34
2022-07-25T11:35:42.939Z,100765.69
2022-07-25T11:37:49.554Z,100761.84
2022-07-25T11:39:56.234Z,100768.63
2022-07-25T11:42:02.200Z,100763.03
2022-07-25T11:44:05.904Z,100780.81
2022-07-25T11:46:09.875Z,100779.75
2022-07-25T11:48:16.196Z,100779.84
2022-07-25T11:50:30.407Z,100775.19
2022-07-25T11:52:36.052Z,100788.84
2022-07-25T11:54:39.978Z,100800.25
2022-07-25T11:56:47.448Z,100797.72
2022-07-25T11:59:09.200Z,100801.16
2022-07-25T12:01:16.098Z,100802.44
2022-07-25T12:03:22.088Z,100799.09
2022-07-25T12:05:34.187Z,100810.66
2022-07-25T12:07:44.756Z,100813.63
2022-07-25T12:09:57.693Z,100813.09
2022-07-25T12:12:05.192Z,100817.91
2022-07-25T12:14:09.250Z,100819.91
2022-07-25T12:16:12.992Z,100827.78
2022-07-25T12:18:16.572Z,100833.16
2022-07-25T12:20:23.649Z,100837.38
2022-07-25T12:22:27.539Z,100828.03
2022-07-25T12:24:31.337Z,100837.72
2022-07-25T12:26:35.089Z,100831.94
2022-07-25T12:28:39.315Z,100838.28
2022-07-25T12:30:45.149Z,100833.06
2022-07-25T12:32:49.271Z,100841.69
2022-07-25T12:34:52.850Z,100845.44
2022-07-25T12:36:57.986Z,100849.56
2022-07-25T12:39:02.020Z,100850.59
2022-07-25T12:41:05.880Z,100852.72
2022-07-25T12:43:09.697Z,100849.88
2022-07-25T12:45:15.036Z,100853.84
2022-07-25T12:47:18.902Z,100850.69
2022-07-25T12:49:22.669Z,100856.75
2022-07-25T12:51:26.469Z,100862.50
2022-07-25T12:53:32.016Z,100865.28
2022-07-25T12:55:35.795Z,100865.94
2022-07-25T12:57:40.283Z,100869.59
2022-07-25T12:59:44.239Z,100867.13
2022-07-25T13:01:49.005Z,100868.47
2022-07-25T13:03:53.771Z,100859.88
2022-07-25T13:05:57.887Z,100869.38
2022-07-25T13:08:01.591Z,100864.09
2022-07-25T13:10:08.710Z,100865.50
2022-07-25T13:12:16.399Z,100867.03
2022-07-25T13:14:21.267Z,100873.47
2022-07-25T13:16:25.596Z,100858.28
2022-07-25T13:18:30.713Z,100874.47
2022-07-25T13:20:37.804Z,100869.78
2022-07-25T13:22:42.464Z,100886.59
2022-07-25T13:24:46.454Z,100877.22
2022-07-25T13:26:52.402Z,100881.13
2022-07-25T13:28:59.843Z,100885.19
2022-07-25T13:31:06.254Z,100883.34
2022-07-25T13:33:10.992Z,100878.66
2022-07-25T13:35:20.139Z,100897.09
2022-07-25T13:37:25.054Z,100900.25
2022-07-25T13:39:29.047Z,100909.47
2022-07-25T13:41:33.350Z,100913.78
2022-07-25T13:43:38.746Z,100906.03
2022-07-25T13:45:43.899Z,100916.63
2022-07-25T13:47:56.373Z,100920.16
2022-07-25T13:50:11.041Z,100908.41
2022-07-25T13:52:14.861Z,100917.47
2022-07-25T13:54:18.916Z,100927.22
2022-07-25T13:56:23.006Z,100922.00
2022-07-25T13:58:26.934Z,100919.47
2022-07-25T14:00:32.371Z,100927.16
2022-07-25T14:02:36.507Z,100933.06
2022-07-25T14:04:40.711Z,100937.50
2022-07-25T14:06:45.326Z,100939.06
2022-07-25T14:08:49.414Z,100942.38
2022-07-25T14:10:53.413Z,100944.50
2022-07-25T14:12:58.218Z,100937.75
2022-07-25T14:15:02.469Z,100940.69
2022-07-25T14:17:08.334Z,100949.81
2022-07-25T14:19:12.924Z,100957.63
2022-07-25T14:21:16.997Z,100954.31
2022-07-25T14:23:20.883Z,100970.81
2022-07-25T14:25:24.929Z,100964.31
2022-07-25T14:27:29.079Z,100964.63
2022-07-25T14:29:32.944Z,100970.00
2022-07-25T14:31:37.923Z,100983.44
2022-07-25T14:33:44.083Z,100973.50
2022-07-25T14:35:47.798Z,100976.91
2022-07-25T14:37:52.570Z,100980.28
2022-07-25T14:39:57.274Z,100975.97
2022-07-25T14:42:01.575Z,100987.81
2022-07-25T14:44:05.459Z,100983.81
2022-07-25T14:46:09.862Z,100990.03
2022-07-25T14:48:13.484Z,100980.09
2022-07-25T14:50:18.607Z,100993.25
2022-07-25T14:52:22.821Z,101013.66
2022-07-25T14:54:28.702Z,100996.78
2022-07-25T14:56:32.791Z,101002.63
2022-07-25T14:58:38.657Z,100999.41
2022-07-25T15:00:43.870Z,101004.38
2022-07-25T15:02:48.305Z,101000.16
2022-07-25T15:04:52.248Z,101010.31
2022-07-25T15:06:58.115Z,101008.53
2022-07-25T15:09:02.093Z,101003.56
2022-07-25T15:11:06.397Z,101012.59
2022-07-25T15:15:34.443Z,101009.69
2022-07-25T15:17:39.280Z,101015.38
2022-07-25T15:19:43.204Z,101010.81
2022-07-25T15:21:47.334Z,101022.44
2022-07-25T15:23:54.291Z,101033.88
2022-07-25T15:26:02.342Z,101033.03
2022-07-25T15:28:08.183Z,101055.53
2022-07-25T15:30:12.703Z,101048.75
2022-07-25T15:32:16.994Z,101044.78
2022-07-25T15:34:21.097Z,101040.78
2022-07-25T15:36:29.313Z,101045.72
2022-07-25T15:38:34.242Z,101043.72
2022-07-25T15:40:40.091Z,101050.06
2022-07-25T15:42:44.593Z,101065.97
2022-07-25T15:44:49.248Z,101055.28
2022-07-25T15:46:52.951Z,101069.19
2022-07-25T15:48:58.225Z,101060.56
2022-07-25T15:51:02.666Z,101059.31
2022-07-25T15:53:07.653Z,101071.75
2022-07-25T15:55:11.908Z,101071.75
2022-07-25T15:57:17.923Z,101078.44
2022-07-25T15:59:22.262Z,101084.50
2022-07-25T16:01:27.018Z,101076.16
2022-07-25T16:03:31.301Z,101080.22
2022-07-25T16:05:36.441Z,101088.97
2022-07-25T16:07:40.404Z,101084.16
2022-07-25T16:09:44.757Z,101087.25
2022-07-25T16:11:49.247Z,101081.97
2022-07-25T16:13:55.098Z,101086.88
2022-07-25T16:15:59.277Z,101085.03
2022-07-25T16:18:04.477Z,101088.84
2022-07-25T16:20:10.685Z,101097.22
2022-07-25T16:22:15.122Z,101104.19
2022-07-25T16:24:19.306Z,101108.50
2022-07-25T16:26:23.688Z,101107.38
2022-07-25T16:28:27.970Z,101113.22
2022-07-25T16:30:34.276Z,101110.81
2022-07-25T16:32:38.511Z,101111.50
2022-07-25T16:34:42.491Z,101121.13
2022-07-25T16:36:46.662Z,101126.03
2022-07-25T16:38:51.125Z,101126.03
2022-07-25T16:40:55.320Z,101131.84
2022-07-25T16:43:00.168Z,101134.84
2022-07-25T16:45:04.446Z,101138.97
2022-07-25T16:47:10.744Z,101150.56
2022-07-25T16:49:15.864Z,101132.31
2022-07-25T16:51:19.848Z,101139.66
2022-07-25T16:53:24.091Z,101146.75
2022-07-25T16:55:28.259Z,101155.22
2022-07-25T16:57:33.860Z,101146.66
2022-07-25T16:59:38.161Z,101145.78
2022-07-25T17:01:42.580Z,101156.94
2022-07-25T17:03:48.084Z,101149.56
2022-07-25T17:05:54.472Z,101152.41
2022-07-25T17:08:00.158Z,101150.75
2022-07-25T17:10:04.465Z,101154.41
2022-07-25T17:12:08.841Z,101158.09
2022-07-25T17:14:12.738Z,101160.50
2022-07-25T17:16:17.140Z,101170.28
2022-07-25T17:18:21.444Z,101170.31
2022-07-25T17:20:27.256Z,101181.47
2022-07-25T17:22:31.736Z,101175.53
2022-07-25T17:24:36.034Z,101184.41
2022-07-25T17:26:40.241Z,101183.13
2022-07-25T17:28:44.554Z,101183.09
2022-07-25T17:30:48.901Z,101184.66
2022-07-25T17:32:53.540Z,101188.59
2022-07-25T17:34:57.338Z,101200.44
2022-07-25T17:37:03.252Z,101207.78
2022-07-25T17:39:08.476Z,101204.94
2022-07-25T17:41:12.683Z,101210.03
2022-07-25T17:43:16.554Z,101224.69
2022-07-25T17:45:21.314Z,101223.25
2022-07-25T17:47:25.136Z,101231.41
2022-07-25T17:49:29.755Z,101238.34
2022-07-25T17:51:34.444Z,101231.72
2022-07-25T17:53:40.127Z,101244.88
2022-07-25T17:55:45.152Z,101254.44
2022-07-25T17:57:53.463Z,101265.06
2022-07-25T17:59:58.443Z,101265.16
2022-07-25T18:02:04.311Z,101258.28
2022-07-25T18:04:08.851Z,101254.03
2022-07-25T18:06:13.091Z,101259.53
2022-07-25T18:08:17.312Z,101266.84
2022-07-25T18:10:23.137Z,101270.63
2022-07-25T18:12:29.445Z,101258.50
2022-07-25T18:14:34.106Z,101272.03
2022-07-25T18:16:38.106Z,101266.66
2022-07-25T18:18:41.922Z,101268.38
2022-07-25T18:20:46.252Z,101268.09
2022-07-25T18:22:50.254Z,101272.34
2022-07-25T18:24:54.262Z,101287.84
2022-07-25T18:27:00.701Z,101283.03
2022-07-25T18:29:04.996Z,101287.09
2022-07-25T18:31:09.113Z,101292.84
2022-07-25T18:33:13.466Z,101291.25
2022-07-25T18:35:17.862Z,101296.19
2022-07-25T18:37:21.983Z,101297.31
2022-07-25T18:39:26.548Z,101290.38
2022-07-25T18:41:30.819Z,101307.44
2022-07-25T18:43:36.519Z,101300.34
2022-07-25T18:45:41.106Z,101299.06
2022-07-25T18:47:46.676Z,101303.72
2022-07-25T18:49:51.349Z,101296.53
2022-07-25T18:51:55.575Z,101302.97
2022-07-25T18:53:59.265Z,101302.84
2022-07-25T18:56:03.999Z,101313.44
2022-07-25T18:58:09.134Z,101311.63
2022-07-25T19:00:15.388Z,101317.81
2022-07-25T19:02:18.959Z,101320.50
2022-07-25T19:04:22.967Z,101317.94
2022-07-25T19:06:27.241Z,101319.78
2022-07-25T19:08:31.115Z,101320.03
2022-07-25T19:10:35.294Z,101332.59
2022-07-25T19:12:40.101Z,101327.34
2022-07-25T19:14:44.596Z,101332.97
2022-07-25T19:16:50.389Z,101331.78
2022-07-25T19:18:54.253Z,101325.81
2022-07-25T19:20:58.845Z,101345.66
2022-07-25T19:23:03.444Z,101338.75
2022-07-25T19:25:11.166Z,101341.78
2022-07-25T19:27:15.274Z,101349.38
2022-07-25T19:29:19.847Z,101348.78
2022-07-25T19:31:24.079Z,101353.53
2022-07-25T19:33:34.681Z,101364.22
2022-07-25T19:35:39.902Z,101362.69
2022-07-25T19:37:44.074Z,101369.84
2022-07-25T19:39:49.202Z,101369.00
2022-07-25T19:41:53.849Z,101384.19
2022-07-25T19:43:57.708Z,101379.09
2022-07-25T19:46:01.519Z,101390.91
2022-07-25T19:48:05.486Z,101388.63
2022-07-25T19:50:12.041Z,101388.13
2022-07-25T19:52:15.826Z,101389.97
2022-07-25T19:54:19.920Z,101393.47
2022-07-25T19:56:23.480Z,101398.72
2022-07-25T19:58:27.689Z,101398.13
2022-07-25T20:00:31.706Z,101394.84
2022-07-25T20:02:36.341Z,101409.06
2022-07-25T20:04:40.726Z,101402.03
2022-07-25T20:06:46.609Z,101396.19
2022-07-25T20:08:51.494Z,101403.72
2022-07-25T20:10:56.293Z,101393.41
2022-07-25T20:13:01.706Z,101410.56
2022-07-25T20:15:06.947Z,101410.56
2022-07-25T20:17:10.782Z,101409.09
2022-07-25T20:19:15.050Z,101417.25
2022-07-25T20:21:19.508Z,101426.00
2022-07-25T20:23:26.665Z,101426.88
2022-07-25T20:25:30.656Z,101432.22
2022-07-25T20:27:35.066Z,101432.31
2022-07-25T20:29:39.037Z,101437.78
2022-07-25T20:31:43.119Z,101444.84
2022-07-25T20:33:46.647Z,101446.78
2022-07-25T20:35:50.621Z,101441.69
2022-07-25T20:37:54.754Z,101443.00
2022-07-25T20:40:00.888Z,101450.19
2022-07-25T20:42:04.806Z,101450.06
2022-07-25T20:44:08.563Z,101448.25
2022-07-25T20:46:12.453Z,101442.53
2022-07-25T20:48:16.164Z,101457.47
2022-07-25T20:50:20.291Z,101453.84
2022-07-25T20:52:24.457Z,101458.47
2022-07-25T20:54:28.149Z,101463.94
2022-07-25T20:56:33.428Z,101464.91
2022-07-25T20:58:37.258Z,101463.31
2022-07-25T21:00:41.011Z,101468.91
2022-07-25T21:02:44.518Z,101469.03
2022-07-25T21:04:48.836Z,101471.59
2022-07-25T21:06:53.244Z,101466.25
2022-07-25T21:09:00.325Z,101477.16
2022-07-25T21:11:05.268Z,101476.69
2022-07-25T21:13:10.660Z,101483.84
2022-07-25T21:15:15.567Z,101478.63
2022-07-25T21:17:19.312Z,101478.13
2022-07-25T21:19:23.315Z,101472.06
2022-07-25T21:21:27.791Z,101476.44
2022-07-25T21:23:31.682Z,101480.78
2022-07-25T21:25:35.359Z,101475.56
2022-07-25T21:27:39.220Z,101482.75
2022-07-25T21:29:44.626Z,101487.25
2022-07-25T21:31:49.143Z,101485.44
2022-07-25T21:33:52.898Z,101485.66
2022-07-25T21:35:56.817Z,101485.78
2022-07-25T21:38:00.536Z,101490.28
2022-07-25T21:40:04.328Z,101500.13
2022-07-25T21:42:10.179Z,101492.41
2022-07-25T21:44:14.157Z,101503.34
2022-07-25T21:46:19.422Z,101498.00
2022-07-25T21:48:44.143Z,101498.84
2022-07-25T21:50:47.816Z,101493.50
2022-07-25T21:52:53.357Z,101503.34
2022-07-25T21:54:57.098Z,101503.59
2022-07-25T21:57:00.652Z,101511.72
2022-07-25T21:59:04.962Z,101515.47
2022-07-25T22:01:09.299Z,101518.16
2022-07-25T22:03:14.391Z,101513.03
2022-07-25T22:05:19.085Z,101517.66
2022-07-25T22:07:23.193Z,101523.94
2022-07-25T22:09:27.267Z,101519.69
2022-07-25T22:11:39.243Z,101527.94
2022-07-25T22:13:47.510Z,101524.66
2022-07-25T22:15:51.744Z,101531.94
2022-07-25T22:17:56.594Z,101534.72
2022-07-25T22:20:04.527Z,101541.16
2022-07-25T22:22:09.334Z,101542.22
2022-07-25T22:24:13.349Z,101554.00
2022-07-25T22:26:17.733Z,101546.09
2022-07-25T22:28:22.261Z,101547.94
2022-07-25T22:30:26.447Z,101545.25
2022-07-25T22:32:30.465Z,101554.59
2022-07-25T22:34:34.758Z,101557.56
2022-07-25T22:36:40.462Z,101555.25
2022-07-25T22:38:44.881Z,101555.50
2022-07-25T22:40:49.068Z,101558.16
2022-07-25T22:42:53.606Z,101560.06
2022-07-25T22:44:58.012Z,101554.97
2022-07-25T22:47:02.083Z,101562.22
2022-07-25T22:49:06.863Z,101554.31
2022-07-25T22:51:12.181Z,101566.31
2022-07-25T22:53:17.599Z,101564.00
2022-07-25T22:55:22.050Z,101557.38
2022-07-25T22:57:27.488Z,101561.22
2022-07-25T22:59:31.668Z,101563.16
2022-07-25T23:01:35.575Z,101566.78
2022-07-25T23:03:39.745Z,101561.44
2022-07-25T23:05:44.055Z,101564.97
2022-07-25T23:07:48.229Z,101566.78
2022-07-25T23:09:53.788Z,101566.06
2022-07-25T23:11:57.635Z,101567.97
2022-07-25T23:14:02.605Z,101572.56
2022-07-25T23:16:10.438Z,101576.31
2022-07-25T23:18:14.761Z,101579.84
2022-07-25T23:20:18.995Z,101579.06
2022-07-25T23:22:24.596Z,101577.50
2022-07-25T23:24:28.748Z,101586.34
2022-07-25T23:26:34.573Z,101583.56
2022-07-25T23:28:39.484Z,101576.63
2022-07-25T23:30:43.966Z,101574.31
2022-07-25T23:32:48.899Z,101584.31
2022-07-25T23:34:52.802Z,101583.38
2022-07-25T23:36:57.181Z,101571.84
2022-07-25T23:39:01.114Z,101584.09
2022-07-25T23:41:05.562Z,101581.53
2022-07-25T23:43:11.133Z,101581.53
2022-07-25T23:45:17.740Z,101574.53
2022-07-25T23:47:26.817Z,101569.47
2022-07-25T23:49:43.482Z,101567.13
2022-07-25T23:51:47.268Z,101577.91
2022-07-25T23:53:51.941Z,101582.50